Bristol, Illinois
Current Conditions -  °F | °C
As of 3:52 AM on Thursday 23 Oct 2014 (Local Time) from KARR Reporting Station
Haze Haze  
Wind Chill: 37°   Ceiling: Unl
Heat Index: 37°   Visibility: 5mi
Dew Point: 33°   Wind: 3mph
Humidity: 86%   Direction: 140°SE
Pressure: 30.22"   Gusts: NA
Location:  41.69°N, 88.43°W
Report Text: KARR 230852Z AUTO 14003KT 5SM BR CLR 03/01 A3022 RMK AO2 SLP236 T00280006 56010
Loading
Personal Weather Stations






























Interactive Weather Map
Tropical Storm Tracking
New forecast layout! Learn more

10-Day Weather Forecast

Advertisements
Track Severe Weather on mobile